Time;durP1;ratioP1;P1;durP2;ratioP2;P2;SDS_P1;SDS_P2;PMS_P1;PMS_P2;Temp;Humidity;BMP_temperature;BMP_pressure;BME280_temperature;BME280_humidity;BME280_pressure;Samples;Min_cycle;Max_cycle;Signal;HPM_P1;HPM_P2
2021/05/08 00:01:11;;;;;;;5.60;4.40;;;7.20;99.90;;;;;;6136860;23;20968;-66
2021/05/08 00:03:36;;;;;;;11.00;4.23;;;7.20;99.90;;;;;;6135461;22;20269;-67
2021/05/08 00:06:07;;;;;;;10.60;4.80;;;7.20;99.90;;;;;;6157371;23;20201;-64
2021/05/08 00:08:32;;;;;;;6.67;4.67;;;7.10;99.90;;;;;;6136524;23;20170;-64
2021/05/08 00:11:01;;;;;;;6.20;4.70;;;7.20;99.90;;;;;;6160420;23;20623;-64
2021/05/08 00:13:26;;;;;;;7.53;4.10;;;7.10;99.90;;;;;;6131331;22;20197;-64
2021/05/08 00:15:52;;;;;;;8.63;4.57;;;7.10;99.90;;;;;;6136989;23;21151;-63
2021/05/08 00:18:18;;;;;;;6.67;4.70;;;7.10;99.90;;;;;;6133982;23;20447;-63
2021/05/08 00:20:43;;;;;;;14.50;5.80;;;7.10;99.90;;;;;;6133018;23;20286;-64
2021/05/08 00:23:11;;;;;;;6.43;4.70;;;7.10;99.90;;;;;;6134197;22;20162;-62
2021/05/08 00:25:37;;;;;;;5.50;4.47;;;7.00;99.90;;;;;;6134906;23;20717;-62
2021/05/08 00:28:03;;;;;;;6.27;4.70;;;7.00;99.90;;;;;;6136741;23;20939;-64
2021/05/08 00:30:29;;;;;;;8.03;4.10;;;7.00;99.90;;;;;;6136320;23;20246;-63
2021/05/08 00:32:55;;;;;;;8.80;4.50;;;7.00;99.90;;;;;;6133115;22;20154;-63
2021/05/08 00:35:20;;;;;;;9.13;4.97;;;7.00;99.90;;;;;;6133890;23;20872;-64
2021/05/08 00:37:46;;;;;;;5.93;4.37;;;6.90;99.90;;;;;;6171260;22;20206;-93
2021/05/08 00:40:18;;;;;;;8.23;4.10;;;6.90;99.90;;;;;;6147210;23;20169;-93
2021/05/08 00:42:47;;;;;;;8.07;4.83;;;6.90;99.90;;;;;;6146542;23;20554;-93
2021/05/08 00:45:15;;;;;;;9.10;5.00;;;6.90;99.90;;;;;;6142950;22;20705;-93
2021/05/08 00:47:47;;;;;;;5.80;4.87;;;6.90;99.90;;;;;;6130974;22;20661;-69
2021/05/08 00:50:14;;;;;;;8.20;4.90;;;6.90;99.90;;;;;;6114852;23;20600;-69
2021/05/08 00:52:40;;;;;;;7.20;5.30;;;7.00;99.90;;;;;;6135177;23;21123;-68
2021/05/08 00:55:06;;;;;;;7.63;4.37;;;6.90;99.90;;;;;;6108541;22;20594;-67
2021/05/08 00:57:32;;;;;;;8.73;5.10;;;6.90;99.90;;;;;;6112083;23;20154;-70
2021/05/08 00:59:58;;;;;;;7.23;4.80;;;6.90;99.90;;;;;;6116911;23;20561;-72
2021/05/08 01:02:24;;;;;;;9.73;5.53;;;6.90;99.90;;;;;;6112816;23;21040;-69
2021/05/08 01:04:50;;;;;;;6.40;4.53;;;6.80;99.90;;;;;;6105911;22;20218;-69
2021/05/08 01:07:15;;;;;;;7.87;5.17;;;6.80;99.90;;;;;;6110786;23;21173;-69
2021/05/08 01:09:44;;;;;;;9.90;6.73;;;6.80;99.90;;;;;;6111674;23;20154;-70
2021/05/08 01:12:10;;;;;;;9.23;4.70;;;6.80;99.90;;;;;;6109652;23;20709;-71
2021/05/08 01:14:36;;;;;;;6.30;4.93;;;6.70;99.90;;;;;;6105463;22;21131;-70
2021/05/08 01:17:03;;;;;;;6.50;4.57;;;6.70;99.90;;;;;;6111973;23;20643;-70
2021/05/08 01:19:32;;;;;;;8.93;4.77;;;6.70;99.90;;;;;;6130248;23;20649;-70
2021/05/08 01:21:57;;;;;;;7.80;5.10;;;6.60;99.90;;;;;;6130491;23;20750;-68
2021/05/08 01:24:23;;;;;;;5.47;4.97;;;6.60;99.90;;;;;;6108946;22;20594;-68
2021/05/08 01:26:49;;;;;;;5.90;4.90;;;6.70;99.90;;;;;;6106786;23;20193;-69
2021/05/08 01:29:14;;;;;;;10.70;4.73;;;6.60;99.90;;;;;;6104855;23;20506;-68
2021/05/08 01:31:40;;;;;;;6.53;5.83;;;6.60;99.90;;;;;;6111672;23;20531;-69
2021/05/08 01:34:06;;;;;;;8.17;5.70;;;6.50;99.90;;;;;;6108934;22;20202;-68
2021/05/08 01:36:32;;;;;;;5.70;5.00;;;6.50;99.90;;;;;;6109513;23;20608;-68
2021/05/08 01:38:59;;;;;;;8.20;4.80;;;6.40;99.90;;;;;;6111446;23;20182;-69
2021/05/08 01:41:25;;;;;;;9.00;5.30;;;6.40;99.90;;;;;;6109691;23;20558;-68
2021/05/08 01:43:50;;;;;;;7.40;5.73;;;6.40;99.90;;;;;;6110265;22;20954;-69
2021/05/08 01:46:16;;;;;;;5.77;4.70;;;6.40;99.90;;;;;;6109424;23;20623;-69
2021/05/08 01:48:42;;;;;;;8.30;4.67;;;6.30;99.90;;;;;;6111321;23;20182;-69
2021/05/08 01:51:07;;;;;;;8.27;5.50;;;6.30;99.90;;;;;;6106936;23;20151;-68
2021/05/08 01:53:35;;;;;;;8.40;5.27;;;6.30;99.90;;;;;;6106598;22;20194;-68
2021/05/08 01:56:01;;;;;;;9.87;5.47;;;6.30;99.90;;;;;;6110087;23;20378;-69
2021/05/08 01:58:27;;;;;;;6.40;4.73;;;6.30;99.90;;;;;;6106717;23;20542;-68
2021/05/08 02:00:53;;;;;;;11.70;5.33;;;6.20;99.90;;;;;;6110850;23;20192;-69
2021/05/08 02:03:19;;;;;;;9.97;5.43;;;6.20;99.90;;;;;;6112781;22;20198;-69
2021/05/08 02:05:47;;;;;;;6.50;5.00;;;6.20;99.90;;;;;;6106874;23;20617;-68
2021/05/08 02:08:14;;;;;;;7.10;4.60;;;6.20;99.90;;;;;;6108868;23;20159;-68
2021/05/08 02:10:43;;;;;;;10.73;5.47;;;6.10;99.90;;;;;;6112283;23;20921;-68
2021/05/08 02:13:09;;;;;;;6.47;5.40;;;6.10;99.90;;;;;;6109252;22;20605;-68
2021/05/08 02:15:35;;;;;;;6.50;5.90;;;6.10;99.90;;;;;;6108999;23;20577;-69
2021/05/08 02:18:02;;;;;;;6.37;5.43;;;6.10;99.90;;;;;;6107469;23;20566;-68
2021/05/08 02:20:31;;;;;;;10.27;5.67;;;6.00;99.90;;;;;;6132531;23;20566;-69
2021/05/08 02:22:59;;;;;;;5.90;5.33;;;6.00;99.90;;;;;;6113235;22;20600;-68
2021/05/08 02:25:26;;;;;;;7.10;5.40;;;6.00;99.90;;;;;;6107736;23;21154;-68
2021/05/08 02:27:52;;;;;;;10.43;6.10;;;6.00;99.90;;;;;;6111187;23;21195;-69
2021/05/08 02:30:23;;;;;;;7.30;6.10;;;6.00;99.90;;;;;;6132718;23;20558;-69
2021/05/08 02:32:49;;;;;;;7.77;6.00;;;6.00;99.90;;;;;;6134111;23;20186;-68
2021/05/08 02:35:17;;;;;;;10.50;6.60;;;6.00;99.90;;;;;;6108605;22;20702;-69
2021/05/08 02:37:43;;;;;;;6.80;5.97;;;5.90;99.90;;;;;;6132046;23;20570;-68
2021/05/08 02:40:16;;;;;;;8.63;6.37;;;6.00;99.90;;;;;;6137383;23;21131;-69
2021/05/08 02:42:42;;;;;;;8.67;5.63;;;5.90;99.90;;;;;;6106885;23;20895;-69
2021/05/08 02:45:09;;;;;;;11.03;5.80;;;5.90;99.90;;;;;;6107127;22;20614;-68
2021/05/08 02:47:39;;;;;;;8.57;5.97;;;5.90;99.90;;;;;;6132627;23;20175;-67
2021/05/08 02:50:06;;;;;;;11.03;6.00;;;5.90;99.90;;;;;;6108611;23;20833;-68
2021/05/08 02:52:32;;;;;;;7.13;5.53;;;5.90;99.90;;;;;;6107133;23;20853;-69
2021/05/08 02:54:57;;;;;;;7.83;6.27;;;5.90;99.90;;;;;;6107114;22;20600;-68
2021/05/08 02:57:23;;;;;;;8.40;6.50;;;5.90;99.90;;;;;;6108863;23;20189;-69
2021/05/08 02:59:48;;;;;;;13.30;6.40;;;5.90;99.90;;;;;;6109952;23;20603;-69
2021/05/08 03:02:16;;;;;;;9.00;6.10;;;6.00;99.90;;;;;;6113774;23;20605;-68
2021/05/08 03:04:44;;;;;;;9.57;6.63;;;6.00;99.90;;;;;;6110950;22;20556;-69
2021/05/08 03:07:10;;;;;;;10.90;6.70;;;5.90;99.90;;;;;;6110796;23;20566;-69
2021/05/08 03:09:35;;;;;;;10.57;6.97;;;5.90;99.90;;;;;;6136061;23;20608;-68
2021/05/08 03:12:03;;;;;;;7.27;6.57;;;5.90;99.90;;;;;;6108373;23;20162;-68
2021/05/08 03:14:29;;;;;;;9.37;6.00;;;5.90;99.90;;;;;;6110697;22;20206;-69
2021/05/08 03:16:54;;;;;;;9.00;6.13;;;5.80;99.90;;;;;;6106256;23;21118;-69
2021/05/08 03:19:22;;;;;;;8.67;6.30;;;5.80;99.90;;;;;;6109970;23;20304;-69
2021/05/08 03:21:50;;;;;;;12.00;6.20;;;5.80;99.90;;;;;;6107462;23;20209;-70
2021/05/08 03:24:16;;;;;;;8.87;6.90;;;5.80;99.90;;;;;;6107902;22;20581;-68
2021/05/08 03:26:42;;;;;;;8.33;6.53;;;5.90;99.90;;;;;;6132223;23;20823;-69
2021/05/08 03:29:08;;;;;;;7.37;6.57;;;5.80;99.90;;;;;;6107437;23;20538;-68
2021/05/08 03:31:33;;;;;;;10.00;6.60;;;5.80;99.90;;;;;;6101024;23;20581;-68
2021/05/08 03:34:00;;;;;;;7.50;6.53;;;5.80;99.90;;;;;;6102168;22;20304;-69
2021/05/08 03:36:26;;;;;;;8.63;6.70;;;5.80;99.90;;;;;;6108152;23;20184;-68
2021/05/08 03:38:52;;;;;;;7.50;6.80;;;5.80;99.90;;;;;;6113122;23;21033;-69
2021/05/08 03:41:18;;;;;;;9.60;6.87;;;5.70;99.90;;;;;;6108288;23;20812;-68
2021/05/08 03:43:44;;;;;;;12.20;6.70;;;5.70;99.90;;;;;;6112312;22;20601;-69
2021/05/08 03:46:09;;;;;;;7.60;5.93;;;5.70;99.90;;;;;;6111506;23;20626;-69
2021/05/08 03:48:35;;;;;;;11.53;6.90;;;5.70;99.90;;;;;;6107788;23;20174;-68
2021/05/08 03:51:00;;;;;;;13.47;6.80;;;5.70;99.90;;;;;;6106954;23;20498;-69
2021/05/08 03:53:26;;;;;;;9.40;5.83;;;5.70;99.90;;;;;;6112089;22;20273;-70
2021/05/08 03:55:52;;;;;;;8.50;6.90;;;5.70;99.90;;;;;;6113010;23;20624;-69
2021/05/08 03:58:23;;;;;;;12.80;6.93;;;5.70;99.90;;;;;;6105640;23;20167;-69
2021/05/08 04:00:50;;;;;;;7.60;6.40;;;5.60;99.90;;;;;;6108905;23;20883;-69
2021/05/08 04:03:15;;;;;;;9.40;6.40;;;5.60;99.90;;;;;;6109511;22;20923;-70
2021/05/08 04:05:41;;;;;;;8.10;6.27;;;5.60;99.90;;;;;;6104968;23;20629;-69
2021/05/08 04:08:06;;;;;;;8.10;6.60;;;5.60;99.90;;;;;;6110531;23;20483;-69
2021/05/08 04:10:32;;;;;;;11.00;7.10;;;5.70;99.90;;;;;;6109820;23;20161;-69
2021/05/08 04:12:58;;;;;;;8.63;6.70;;;5.70;99.90;;;;;;6110044;22;20500;-69
2021/05/08 04:15:23;;;;;;;13.30;6.90;;;5.70;99.90;;;;;;6111404;23;20158;-69
2021/05/08 04:17:52;;;;;;;6.87;6.27;;;5.70;99.90;;;;;;6109361;23;20196;-70
2021/05/08 04:20:17;;;;;;;9.07;6.50;;;5.70;99.90;;;;;;6111731;23;20162;-69
2021/05/08 04:22:43;;;;;;;10.07;7.10;;;5.70;99.90;;;;;;6111320;23;20580;-69
2021/05/08 04:25:11;;;;;;;11.70;7.30;;;5.70;99.90;;;;;;6104574;22;20213;-68
2021/05/08 04:27:36;;;;;;;9.97;6.80;;;5.70;99.90;;;;;;6114218;23;20158;-69
2021/05/08 04:30:06;;;;;;;11.53;7.00;;;5.80;99.90;;;;;;6111383;23;20609;-69
2021/05/08 04:32:32;;;;;;;10.30;7.30;;;5.80;99.90;;;;;;6110836;23;20167;-69
2021/05/08 04:34:57;;;;;;;10.10;7.00;;;5.90;99.90;;;;;;6105725;22;20598;-69
2021/05/08 04:37:23;;;;;;;11.17;7.23;;;5.90;99.90;;;;;;6109980;23;20178;-70
2021/05/08 04:39:48;;;;;;;8.33;6.40;;;5.90;99.90;;;;;;6110275;23;20238;-70
2021/05/08 04:42:16;;;;;;;12.47;7.57;;;6.00;99.90;;;;;;6112317;23;20208;-71
2021/05/08 04:44:44;;;;;;;10.00;6.73;;;6.00;99.90;;;;;;6108969;22;20725;-69
2021/05/08 04:47:13;;;;;;;8.53;7.30;;;6.10;99.90;;;;;;6107450;23;20586;-69
2021/05/08 04:49:39;;;;;;;10.20;6.80;;;6.10;99.90;;;;;;6104355;23;20690;-70
2021/05/08 04:52:05;;;;;;;8.67;6.43;;;6.10;99.90;;;;;;6108983;23;20543;-69
2021/05/08 04:54:31;;;;;;;8.13;6.53;;;6.20;99.90;;;;;;6108820;22;20624;-70
2021/05/08 04:56:56;;;;;;;8.83;7.03;;;6.30;99.90;;;;;;6112235;23;21094;-69
2021/05/08 04:59:22;;;;;;;11.53;6.80;;;6.30;99.90;;;;;;6108558;23;20263;-69
2021/05/08 05:01:47;;;;;;;7.50;6.70;;;6.40;99.90;;;;;;6111979;23;20264;-69
2021/05/08 05:04:13;;;;;;;10.33;8.23;;;6.50;99.90;;;;;;6109678;22;20206;-70
2021/05/08 05:06:38;;;;;;;12.37;6.80;;;6.50;99.90;;;;;;6106790;23;20788;-69
2021/05/08 05:09:04;;;;;;;9.37;7.67;;;6.50;99.90;;;;;;6106958;23;20567;-70
2021/05/08 05:11:29;;;;;;;10.67;7.43;;;6.60;99.90;;;;;;6106571;23;20658;-70
2021/05/08 05:13:55;;;;;;;11.73;7.70;;;6.60;99.90;;;;;;6104254;22;20971;-69
2021/05/08 05:16:21;;;;;;;9.40;7.90;;;6.60;99.90;;;;;;6110190;23;20466;-69
2021/05/08 05:18:46;;;;;;;12.17;7.83;;;6.70;99.90;;;;;;6134391;23;20178;-70
2021/05/08 05:21:12;;;;;;;11.37;8.00;;;6.70;99.90;;;;;;6109715;23;20162;-70
2021/05/08 05:23:37;;;;;;;12.90;7.90;;;6.80;99.90;;;;;;6110093;22;20206;-69
2021/05/08 05:26:03;;;;;;;9.10;8.20;;;6.80;99.90;;;;;;6129617;23;20205;-69
2021/05/08 05:28:30;;;;;;;10.23;7.33;;;6.80;99.90;;;;;;6107053;23;20155;-69
2021/05/08 05:30:57;;;;;;;9.30;7.23;;;6.90;99.90;;;;;;6130875;23;20215;-68
2021/05/08 05:33:23;;;;;;;8.80;7.90;;;6.90;99.90;;;;;;6109761;22;20688;-69
2021/05/08 05:35:50;;;;;;;8.13;7.40;;;7.00;99.90;;;;;;6105340;23;20574;-69
2021/05/08 05:38:16;;;;;;;14.60;7.73;;;7.10;99.90;;;;;;6111794;23;20573;-70
2021/05/08 05:40:43;;;;;;;8.23;7.20;;;7.10;99.90;;;;;;6108727;23;20567;-70
2021/05/08 05:43:08;;;;;;;10.77;7.70;;;7.20;99.90;;;;;;6109904;22;20645;-70
2021/05/08 05:45:37;;;;;;;12.43;7.97;;;7.20;99.90;;;;;;6109473;22;20664;-69
2021/05/08 05:48:04;;;;;;;9.80;8.63;;;7.30;99.90;;;;;;6109285;23;20872;-69
2021/05/08 05:50:31;;;;;;;8.33;7.53;;;7.40;99.90;;;;;;6108020;23;21207;-69
2021/05/08 05:52:57;;;;;;;11.10;8.10;;;7.40;99.90;;;;;;6105679;22;20623;-69
2021/05/08 05:55:23;;;;;;;9.70;8.03;;;7.50;99.90;;;;;;6107763;23;20896;-70
2021/05/08 05:57:50;;;;;;;11.40;7.50;;;7.40;99.90;;;;;;6110307;23;20168;-71
2021/05/08 06:00:16;;;;;;;12.33;7.10;;;7.50;99.90;;;;;;6133280;23;21147;-72
2021/05/08 06:02:42;;;;;;;7.30;6.60;;;7.50;99.90;;;;;;6127061;23;21111;-71
2021/05/08 06:05:08;;;;;;;10.30;7.20;;;7.70;99.90;;;;;;6100933;22;20679;-72
2021/05/08 06:07:34;;;;;;;6.90;6.20;;;7.70;99.90;;;;;;6122445;23;20158;-71
2021/05/08 06:09:59;;;;;;;7.83;6.47;;;7.80;99.90;;;;;;6110202;23;20579;-75
2021/05/08 06:12:25;;;;;;;9.90;6.93;;;7.80;99.90;;;;;;6102056;23;20193;-70
2021/05/08 06:14:51;;;;;;;10.10;7.10;;;7.90;99.90;;;;;;6102198;22;20202;-75
2021/05/08 06:17:17;;;;;;;8.30;6.80;;;8.00;99.90;;;;;;6105797;23;20182;-76
2021/05/08 06:19:42;;;;;;;6.73;5.90;;;8.00;99.90;;;;;;6107157;23;20633;-72
2021/05/08 06:22:08;;;;;;;8.37;6.20;;;8.10;99.90;;;;;;6130525;23;20166;-71
2021/05/08 06:24:33;;;;;;;9.67;7.23;;;8.10;99.90;;;;;;6097733;22;20668;-68
2021/05/08 06:26:59;;;;;;;8.20;5.60;;;8.20;99.90;;;;;;6104030;23;20731;-68
2021/05/08 06:29:25;;;;;;;8.80;6.80;;;8.30;99.90;;;;;;6100087;23;20154;-68
2021/05/08 06:31:50;;;;;;;9.43;6.57;;;8.40;99.90;;;;;;6100641;23;20196;-69
2021/05/08 06:34:16;;;;;;;8.20;6.40;;;8.40;99.90;;;;;;6093548;22;20224;-67
2021/05/08 06:36:41;;;;;;;7.90;5.90;;;8.40;99.90;;;;;;6132736;22;20633;-59
2021/05/08 06:39:09;;;;;;;8.33;6.00;;;8.50;99.90;;;;;;6146863;23;20207;-62
2021/05/08 06:41:35;;;;;;;8.90;6.43;;;8.60;99.90;;;;;;6143327;23;20154;-62
2021/05/08 06:44:01;;;;;;;10.00;6.80;;;8.70;99.90;;;;;;6147631;23;20588;-60
2021/05/08 06:46:26;;;;;;;9.90;7.07;;;8.80;99.90;;;;;;6162990;23;20193;-60
2021/05/08 06:48:52;;;;;;;8.60;6.33;;;8.70;99.90;;;;;;6176271;23;20237;-60
2021/05/08 06:51:18;;;;;;;7.73;6.20;;;8.80;99.90;;;;;;6176274;23;20176;-60
2021/05/08 06:53:43;;;;;;;8.60;5.60;;;8.80;99.90;;;;;;6176147;23;20225;-60
2021/05/08 06:56:09;;;;;;;6.73;5.20;;;8.90;99.90;;;;;;6174241;23;20588;-60
2021/05/08 06:58:34;;;;;;;8.40;5.40;;;9.00;99.90;;;;;;6146406;22;20607;-59
2021/05/08 07:01:00;;;;;;;7.83;5.40;;;9.10;99.90;;;;;;6174095;23;20159;-60
2021/05/08 07:03:26;;;;;;;9.27;5.70;;;9.20;99.90;;;;;;6175417;22;20466;-60
2021/05/08 07:05:52;;;;;;;7.07;5.40;;;9.20;99.90;;;;;;6174234;23;20189;-60
2021/05/08 07:08:17;;;;;;;8.30;5.13;;;9.30;99.90;;;;;;6149073;22;20173;-61
2021/05/08 07:10:45;;;;;;;9.70;5.97;;;9.40;99.90;;;;;;6149820;23;20607;-59
2021/05/08 07:13:13;;;;;;;10.87;5.57;;;9.40;99.90;;;;;;6174214;23;20157;-60
2021/05/08 07:15:39;;;;;;;11.03;5.10;;;9.40;99.90;;;;;;6176490;23;20674;-60
2021/05/08 07:18:06;;;;;;;7.33;5.30;;;9.40;99.90;;;;;;6175861;23;20568;-60
2021/05/08 07:20:36;;;;;;;7.87;6.10;;;9.50;99.90;;;;;;6173909;23;20157;-60
2021/05/08 07:23:06;;;;;;;6.87;5.53;;;9.60;99.90;;;;;;6122275;23;20578;-59
2021/05/08 07:25:35;;;;;;;10.03;5.97;;;9.70;99.90;;;;;;6146509;23;20645;-60
2021/05/08 07:28:27;;;;;;;6.67;5.37;;;9.60;99.90;;;;;;6147784;23;20552;-60
2021/05/08 07:30:54;;;;;;;9.10;5.70;;;9.70;99.90;;;;;;6146391;23;20563;-60
2021/05/08 07:33:22;;;;;;;7.13;5.70;;;9.70;99.90;;;;;;6172846;23;20931;-60
2021/05/08 07:35:49;;;;;;;7.27;5.17;;;9.70;99.90;;;;;;6276870;22;20600;-60
2021/05/08 07:38:16;;;;;;;5.97;4.93;;;9.80;99.90;;;;;;6171389;23;20559;-60
2021/05/08 07:40:42;;;;;;;6.97;5.60;;;9.70;99.90;;;;;;6169796;23;21136;-60
2021/05/08 07:43:09;;;;;;;6.30;5.00;;;9.80;99.90;;;;;;6171090;22;20636;-60
2021/05/08 07:45:35;;;;;;;8.10;5.10;;;9.90;99.90;;;;;;6170964;23;20612;-60
2021/05/08 07:48:03;;;;;;;8.60;5.63;;;10.00;99.90;;;;;;6170301;23;20929;-60
2021/05/08 07:50:29;;;;;;;7.10;5.17;;;10.00;99.90;;;;;;6170881;22;20606;-60
2021/05/08 07:52:56;;;;;;;5.80;4.90;;;10.00;99.90;;;;;;6173867;23;20528;-60
2021/05/08 07:55:22;;;;;;;7.93;4.80;;;10.00;99.90;;;;;;6173733;23;20521;-59
2021/05/08 07:57:48;;;;;;;5.97;4.80;;;10.10;99.90;;;;;;6146510;23;20563;-60
2021/05/08 08:00:16;;;;;;;5.20;4.57;;;10.20;99.90;;;;;;6171572;23;20630;-63
2021/05/08 08:02:41;;;;;;;5.33;4.63;;;10.20;99.90;;;;;;6175448;23;20286;-63
2021/05/08 08:05:08;;;;;;;5.87;4.50;;;10.30;99.90;;;;;;6171389;22;20600;-60
2021/05/08 08:07:35;;;;;;;5.23;3.07;;;10.30;99.90;;;;;;6175424;23;20161;-60
2021/05/08 08:10:01;;;;;;;3.40;3.10;;;10.30;99.90;;;;;;6172079;23;20962;-61
2021/05/08 08:12:29;;;;;;;5.27;3.40;;;10.40;99.90;;;;;;6148481;23;20557;-61
2021/05/08 08:14:54;;;;;;;5.20;3.43;;;10.50;99.90;;;;;;6173757;23;20768;-60
2021/05/08 08:17:20;;;;;;;6.03;3.70;;;10.50;99.90;;;;;;6172652;23;20596;-61
2021/05/08 08:19:47;;;;;;;5.40;3.60;;;10.50;99.90;;;;;;6171306;22;20505;-61
2021/05/08 08:22:14;;;;;;;5.03;3.63;;;10.60;99.90;;;;;;6174711;23;20656;-60
2021/05/08 08:24:40;;;;;;;5.67;3.30;;;10.60;99.90;;;;;;6170327;23;20588;-61
2021/05/08 08:27:06;;;;;;;5.93;3.70;;;10.60;99.90;;;;;;6141430;23;20649;-61
2021/05/08 08:29:32;;;;;;;5.00;3.60;;;10.70;99.90;;;;;;6145241;22;20165;-60
2021/05/08 08:31:57;;;;;;;7.43;4.90;;;10.80;99.90;;;;;;6174405;23;20551;-61
2021/05/08 08:34:23;;;;;;;7.23;4.03;;;10.80;99.90;;;;;;6172647;22;20228;-61
2021/05/08 08:36:49;;;;;;;4.77;3.80;;;10.90;99.90;;;;;;6171192;23;20591;-60
2021/05/08 08:39:15;;;;;;;5.93;3.77;;;10.90;99.90;;;;;;6173074;23;20157;-62
2021/05/08 08:41:42;;;;;;;5.87;3.57;;;11.00;99.90;;;;;;6148399;23;20208;-62
2021/05/08 08:44:10;;;;;;;3.50;3.00;;;11.10;99.90;;;;;;6174578;23;20200;-61
2021/05/08 08:46:43;;;;;;;5.00;3.43;;;11.20;99.90;;;;;;6169949;22;20650;-62
2021/05/08 08:49:10;;;;;;;3.43;3.07;;;11.30;99.90;;;;;;6172788;23;20517;-62
2021/05/08 08:51:39;;;;;;;4.33;3.43;;;11.50;99.90;;;;;;6173732;23;20524;-61
2021/05/08 08:54:05;;;;;;;3.37;3.17;;;11.70;99.90;;;;;;6174759;23;20591;-62
2021/05/08 08:56:38;;;;;;;3.67;2.90;;;11.70;99.90;;;;;;6175006;23;20572;-62
2021/05/08 08:59:19;;;;;;;4.23;3.27;;;11.80;99.90;;;;;;6146296;23;21087;-62
2021/05/08 09:01:46;;;;;;;5.10;3.80;;;11.80;99.90;;;;;;6168422;23;20501;-62
2021/05/08 09:04:16;;;;;;;5.47;3.23;;;11.90;99.90;;;;;;6146418;22;21002;-61
2021/05/08 09:06:44;;;;;;;6.40;3.20;;;12.00;99.90;;;;;;6170786;23;20619;-63
2021/05/08 09:09:10;;;;;;;4.47;3.00;;;12.10;99.90;;;;;;6171614;23;20910;-61
2021/05/08 09:11:50;;;;;;;5.20;3.47;;;12.20;99.90;;;;;;6172326;23;20544;-63
2021/05/08 09:14:29;;;;;;;5.53;3.17;;;12.20;99.90;;;;;;6172634;23;20588;-60
2021/05/08 09:17:14;;;;;;;7.77;4.00;;;12.20;99.90;;;;;;6174412;23;20995;-61
2021/05/08 09:19:45;;;;;;;4.83;3.40;;;12.30;99.90;;;;;;6175654;23;20686;-62
2021/05/08 09:22:24;;;;;;;5.30;3.10;;;12.30;99.90;;;;;;6145879;23;20560;-62
2021/05/08 09:24:58;;;;;;;5.20;2.90;;;12.30;99.90;;;;;;6171866;23;20622;-62
2021/05/08 09:27:42;;;;;;;4.13;3.20;;;12.40;99.90;;;;;;6172930;22;20592;-62
2021/05/08 09:30:23;;;;;;;4.00;2.87;;;12.40;99.90;;;;;;6174377;23;20612;-62
2021/05/08 09:32:54;;;;;;;4.33;3.00;;;12.40;99.90;;;;;;6171919;23;20508;-62
2021/05/08 09:35:24;;;;;;;6.77;2.97;;;12.40;99.90;;;;;;6171657;23;21188;-61
2021/05/08 09:38:04;;;;;;;2.97;2.73;;;12.60;99.90;;;;;;6172004;23;20584;-61
2021/05/08 09:40:30;;;;;;;4.40;3.50;;;12.60;99.90;;;;;;6169588;23;20895;-62
2021/05/08 09:42:58;;;;;;;3.17;2.87;;;12.60;99.90;;;;;;6165490;23;20619;-62
2021/05/08 09:45:24;;;;;;;3.70;2.63;;;12.60;99.90;;;;;;6144002;23;20634;-61
2021/05/08 09:47:52;;;;;;;3.30;2.73;;;12.70;99.90;;;;;;6147040;23;21019;-63
2021/05/08 09:50:24;;;;;;;4.13;3.13;;;12.90;99.90;;;;;;6144851;23;20613;-62
2021/05/08 09:52:53;;;;;;;3.67;2.90;;;13.00;99.90;;;;;;6173179;23;20848;-61
2021/05/08 09:55:21;;;;;;;5.43;3.63;;;13.20;99.90;;;;;;6166607;23;21376;-61
2021/05/08 09:58:01;;;;;;;3.70;3.13;;;13.20;99.90;;;;;;6172338;23;20536;-62
2021/05/08 10:00:35;;;;;;;3.70;3.10;;;13.30;99.90;;;;;;6274979;22;20896;-61
2021/05/08 10:03:10;;;;;;;3.07;2.80;;;13.40;99.90;;;;;;6170092;23;20861;-61
2021/05/08 10:05:39;;;;;;;5.30;3.33;;;13.50;99.90;;;;;;6173516;23;20600;-62
2021/05/08 10:08:05;;;;;;;5.60;3.37;;;13.50;99.90;;;;;;6174531;23;20648;-62
2021/05/08 10:10:31;;;;;;;3.77;3.47;;;13.60;99.90;;;;;;6170622;23;20537;-62
2021/05/08 10:12:58;;;;;;;3.37;3.03;;;13.50;99.90;;;;;;6175261;23;20563;-61
2021/05/08 10:15:24;;;;;;;4.80;3.60;;;13.50;99.90;;;;;;6175889;23;20149;-61
2021/05/08 10:17:53;;;;;;;5.00;3.40;;;13.60;99.90;;;;;;6147725;22;20567;-60
2021/05/08 10:20:21;;;;;;;3.43;3.07;;;13.60;99.90;;;;;;6174377;23;20161;-62
2021/05/08 10:22:53;;;;;;;5.33;4.20;;;13.60;99.90;;;;;;6174823;23;20655;-62
2021/05/08 10:25:22;;;;;;;4.47;3.73;;;13.60;99.90;;;;;;6137983;23;20906;-62
2021/05/08 10:27:50;;;;;;;3.73;3.43;;;13.60;99.90;;;;;;6170461;23;20623;-62
2021/05/08 10:30:22;;;;;;;3.67;3.37;;;13.60;99.90;;;;;;6171450;22;20552;-61
2021/05/08 10:32:49;;;;;;;3.97;2.90;;;13.80;99.90;;;;;;6170713;23;20603;-62
2021/05/08 10:35:21;;;;;;;7.67;4.00;;;13.80;99.90;;;;;;6143731;23;20592;-62
2021/05/08 10:38:12;;;;;;;4.20;3.80;;;14.00;99.90;;;;;;6168408;23;20748;-62
2021/05/08 10:40:59;;;;;;;4.10;3.70;;;14.10;99.90;;;;;;6173072;23;20529;-62
2021/05/08 10:43:39;;;;;;;4.20;3.77;;;14.10;99.90;;;;;;6173055;23;20596;-61
2021/05/08 10:46:05;;;;;;;4.60;3.30;;;14.30;99.90;;;;;;6144359;23;20658;-61
2021/05/08 10:48:31;;;;;;;5.07;4.33;;;14.30;99.90;;;;;;6173294;23;20561;-62
2021/05/08 10:50:59;;;;;;;3.30;3.00;;;14.30;99.90;;;;;;6174710;23;20528;-61
2021/05/08 10:53:45;;;;;;;6.50;3.80;;;14.30;99.90;;;;;;6172902;23;20203;-62
2021/05/08 10:56:33;;;;;;;5.23;4.00;;;14.50;99.90;;;;;;6169853;22;20568;-62
2021/05/08 10:59:07;;;;;;;7.23;3.90;;;14.50;99.90;;;;;;6146860;22;20664;-61
2021/05/08 11:01:45;;;;;;;4.53;4.10;;;14.50;99.90;;;;;;6145493;23;20841;-60
2021/05/08 11:04:12;;;;;;;4.07;3.77;;;14.70;99.90;;;;;;6173689;23;20596;-62
2021/05/08 11:06:38;;;;;;;3.67;3.33;;;14.70;99.90;;;;;;6172201;22;20606;-62
2021/05/08 11:09:04;;;;;;;3.60;3.30;;;14.80;99.90;;;;;;6170662;23;20560;-61
2021/05/08 11:11:50;;;;;;;5.27;4.07;;;14.90;99.90;;;;;;6173637;23;20553;-62
2021/05/08 11:14:35;;;;;;;3.80;3.50;;;15.10;99.90;;;;;;6148384;23;20615;-61
2021/05/08 11:17:01;;;;;;;5.27;4.07;;;15.10;99.90;;;;;;6147712;23;20596;-62
2021/05/08 11:19:29;;;;;;;3.63;3.20;;;15.30;99.90;;;;;;6174746;23;20532;-62
2021/05/08 11:22:07;;;;;;;3.67;3.37;;;15.50;99.90;;;;;;6174422;23;20537;-62
2021/05/08 11:24:38;;;;;;;4.10;3.80;;;15.60;99.90;;;;;;6148166;22;20592;-62
2021/05/08 11:27:20;;;;;;;3.93;3.60;;;15.60;99.90;;;;;;6171595;23;20591;-62
2021/05/08 11:29:46;;;;;;;4.13;3.73;;;15.60;99.90;;;;;;6173433;23;20535;-61
2021/05/08 11:32:14;;;;;;;5.77;4.23;;;15.60;99.90;;;;;;6171371;22;20615;-61
2021/05/08 11:34:43;;;;;;;3.60;3.30;;;15.70;99.90;;;;;;6171372;22;20253;-61
2021/05/08 11:37:11;;;;;;;4.57;3.90;;;15.80;99.90;;;;;;6172897;23;20587;-62
2021/05/08 11:39:40;;;;;;;3.83;3.47;;;16.00;99.90;;;;;;6175142;23;20532;-61
2021/05/08 11:42:11;;;;;;;5.40;4.90;;;16.10;99.90;;;;;;6175442;23;20932;-61
2021/05/08 11:44:38;;;;;;;4.13;3.83;;;16.20;99.90;;;;;;6171637;23;20649;-62
2021/05/08 11:50:11;;;;;;;4.00;3.60;;;16.40;99.90;;;;;;6170235;23;21128;-62
2021/05/08 11:52:44;;;;;;;4.60;4.20;;;16.40;99.90;;;;;;6148190;23;20544;-61
2021/05/08 11:55:12;;;;;;;4.53;4.10;;;16.50;99.90;;;;;;6145511;23;20634;-62
2021/05/08 11:57:40;;;;;;;4.83;4.43;;;16.40;99.90;;;;;;6173727;23;20561;-62
2021/05/08 12:00:19;;;;;;;5.40;4.27;;;16.30;99.90;;;;;;6174712;23;20561;-62
2021/05/08 12:02:47;;;;;;;3.93;3.53;;;16.20;99.90;;;;;;6168051;23;20529;-61
2021/05/08 12:05:15;;;;;;;3.60;3.30;;;16.20;99.90;;;;;;6171450;23;20616;-61
2021/05/08 12:07:43;;;;;;;4.70;4.20;;;16.30;99.90;;;;;;6168777;23;20586;-61
2021/05/08 12:10:16;;;;;;;4.97;3.70;;;16.50;99.90;;;;;;6174096;23;20553;-60
2021/05/08 12:12:46;;;;;;;4.20;3.67;;;16.60;99.90;;;;;;6143985;23;20965;-62
2021/05/08 12:15:24;;;;;;;4.63;4.20;;;16.70;99.90;;;;;;6170535;23;20584;-61
2021/05/08 12:17:54;;;;;;;4.23;3.83;;;16.80;99.90;;;;;;6171475;23;20536;-62
2021/05/08 12:20:22;;;;;;;7.03;5.17;;;16.80;99.90;;;;;;6174567;23;20900;-62
2021/05/08 12:22:49;;;;;;;4.90;4.10;;;16.80;99.90;;;;;;6175202;23;20607;-62
2021/05/08 12:25:19;;;;;;;5.10;3.93;;;16.90;99.70;;;;;;6171383;23;21193;-62
2021/05/08 12:27:47;;;;;;;4.67;4.23;;;16.90;99.90;;;;;;6144095;23;20567;-61
2021/05/08 12:30:16;;;;;;;8.37;4.37;;;17.00;99.20;;;;;;6171773;23;21192;-62
2021/05/08 12:32:52;;;;;;;3.67;3.27;;;17.10;98.70;;;;;;6170651;23;20582;-61
2021/05/08 12:35:19;;;;;;;4.27;3.97;;;17.20;98.80;;;;;;6170894;23;20592;-62
2021/05/08 12:37:46;;;;;;;3.80;3.50;;;17.30;98.20;;;;;;6160140;23;20655;-65
2021/05/08 12:40:12;;;;;;;6.03;3.67;;;17.40;97.70;;;;;;6169843;23;20855;-64
2021/05/08 12:42:45;;;;;;;3.20;3.00;;;17.50;97.10;;;;;;6172156;23;20685;-64
2021/05/08 12:45:13;;;;;;;3.60;3.30;;;17.70;95.60;;;;;;6172618;23;20766;-64
2021/05/08 12:47:48;;;;;;;4.30;3.43;;;17.70;94.80;;;;;;6212213;23;20544;-62
2021/05/08 12:50:27;;;;;;;3.90;3.50;;;17.80;94.30;;;;;;6218605;23;20491;-63
2021/05/08 12:52:58;;;;;;;3.97;3.60;;;17.80;93.50;;;;;;6206856;23;20500;-63
2021/05/08 12:55:37;;;;;;;4.90;4.40;;;17.80;93.00;;;;;;6177352;23;20853;-62
2021/05/08 12:58:09;;;;;;;4.83;4.30;;;17.60;92.00;;;;;;6177146;23;20561;-63